Time;durP1;ratioP1;P1;durP2;ratioP2;P2;SDS_P1;SDS_P2;PMS_P1;PMS_P2;Temp;Humidity;BMP_temperature;BMP_pressure;BME280_temperature;BME280_humidity;BME280_pressure;Samples;Min_cycle;Max_cycle;Signal;HPM_P1;HPM_P2
2023/04/11 00:01:28;;;;;;;6.32;1.33;;;7.20;99.90;;;;;;4985453;28;20069;-91
2023/04/11 00:03:55;;;;;;;4.40;0.93;;;7.20;99.90;;;;;;4967901;28;20035;-91
2023/04/11 00:06:21;;;;;;;5.70;0.98;;;7.30;99.90;;;;;;4980349;28;20045;-90
2023/04/11 00:08:55;;;;;;;4.78;1.02;;;7.30;99.90;;;;;;5077553;27;2424480;-88
2023/04/11 00:11:20;;;;;;;3.42;0.90;;;7.40;99.90;;;;;;5137433;27;20051;-89
2023/04/11 00:13:47;;;;;;;6.55;1.08;;;7.40;99.90;;;;;;5123079;27;20038;-89
2023/04/11 00:16:13;;;;;;;4.88;1.02;;;7.40;99.90;;;;;;5142348;27;20036;-89
2023/04/11 00:18:43;;;;;;;6.70;1.23;;;7.40;99.90;;;;;;5140017;27;20506;-89
2023/04/11 00:21:09;;;;;;;8.18;1.35;;;7.40;99.90;;;;;;5120037;27;20031;-89
2023/04/11 00:23:35;;;;;;;4.22;1.17;;;7.30;99.90;;;;;;5142273;27;20034;-89
2023/04/11 00:26:02;;;;;;;3.42;0.82;;;7.20;99.90;;;;;;5120158;27;20091;-89
2023/04/11 00:28:27;;;;;;;2.80;0.90;;;7.20;99.90;;;;;;5122249;27;20050;-88
2023/04/11 00:30:53;;;;;;;4.20;1.25;;;7.20;99.90;;;;;;5141172;27;20085;-89
2023/04/11 00:33:18;;;;;;;3.40;0.90;;;7.20;99.90;;;;;;5139173;27;20543;-89
2023/04/11 00:35:44;;;;;;;3.75;1.08;;;7.20;99.90;;;;;;5122216;27;20047;-89
2023/04/11 00:38:10;;;;;;;8.10;1.30;;;7.20;99.90;;;;;;5140686;27;20076;-89
2023/04/11 00:40:35;;;;;;;3.50;0.98;;;7.20;99.90;;;;;;5157096;27;20042;-89
2023/04/11 00:43:01;;;;;;;4.57;0.95;;;7.10;99.90;;;;;;5113978;27;20122;-90
2023/04/11 00:45:27;;;;;;;2.95;0.98;;;7.10;99.90;;;;;;5102643;27;20530;-89
2023/04/11 00:47:53;;;;;;;4.50;1.15;;;7.00;99.90;;;;;;5130574;27;20038;-89
2023/04/11 00:50:20;;;;;;;6.03;0.93;;;7.00;99.90;;;;;;5131178;27;20037;-89
2023/04/11 00:52:48;;;;;;;5.93;0.90;;;7.00;99.90;;;;;;5138167;27;20080;-88
2023/04/11 00:55:14;;;;;;;4.82;1.42;;;6.90;99.90;;;;;;5121173;27;20042;-89
2023/04/11 00:57:41;;;;;;;7.53;1.98;;;6.90;99.90;;;;;;5117226;27;20631;-89
2023/04/11 01:00:10;;;;;;;7.95;2.40;;;7.00;99.90;;;;;;5122530;27;20457;-89
2023/04/11 01:02:37;;;;;;;9.02;2.00;;;7.00;99.90;;;;;;5118497;27;20042;-89
2023/04/11 01:05:06;;;;;;;4.88;1.58;;;7.00;99.90;;;;;;5138565;27;20497;-89
2023/04/11 01:07:34;;;;;;;10.45;2.15;;;7.00;99.90;;;;;;5121433;27;20045;-89
2023/04/11 01:10:01;;;;;;;6.38;2.00;;;7.00;99.90;;;;;;5132868;27;20041;-89
2023/04/11 01:12:28;;;;;;;8.85;2.45;;;7.00;99.90;;;;;;5112533;27;20042;-89
2023/04/11 01:14:54;;;;;;;7.20;1.52;;;7.00;99.90;;;;;;5105564;27;20035;-89
2023/04/11 01:17:20;;;;;;;8.30;1.58;;;6.90;99.90;;;;;;5130217;27;20035;-89
2023/04/11 01:19:46;;;;;;;8.30;1.58;;;6.90;99.90;;;;;;5102051;27;20392;-88
2023/04/11 01:22:16;;;;;;;5.35;1.30;;;6.90;99.90;;;;;;5086621;28;20070;-88
2023/04/11 01:24:43;;;;;;;5.93;1.50;;;6.90;99.90;;;;;;5096383;28;20070;-89
2023/04/11 01:27:09;;;;;;;6.57;1.40;;;6.90;99.90;;;;;;5095474;27;20066;-88
2023/04/11 01:29:35;;;;;;;7.50;1.80;;;6.90;99.90;;;;;;5116231;27;20126;-88
2023/04/11 01:32:01;;;;;;;7.15;1.75;;;6.90;99.90;;;;;;5094747;28;20451;-89
2023/04/11 01:34:28;;;;;;;4.25;1.20;;;6.90;99.90;;;;;;5095289;28;20541;-88
2023/04/11 01:36:54;;;;;;;5.18;1.70;;;6.90;99.90;;;;;;5098320;27;20034;-89
2023/04/11 01:39:20;;;;;;;5.05;1.50;;;6.90;99.90;;;;;;5083999;28;20067;-88
2023/04/11 01:41:46;;;;;;;6.97;1.77;;;6.90;99.90;;;;;;5095386;28;20081;-88
2023/04/11 01:44:12;;;;;;;8.07;1.95;;;6.90;99.90;;;;;;5088589;27;20069;-88
2023/04/11 01:46:38;;;;;;;7.72;1.42;;;6.90;99.90;;;;;;5115931;27;20477;-88
2023/04/11 01:49:05;;;;;;;7.28;1.65;;;6.90;99.90;;;;;;5097851;27;20534;-89
2023/04/11 01:51:31;;;;;;;5.50;1.85;;;6.90;99.90;;;;;;5114115;27;20039;-89
2023/04/11 01:53:56;;;;;;;4.82;1.60;;;6.90;99.90;;;;;;5115383;27;20042;-89
2023/04/11 01:56:22;;;;;;;4.40;1.73;;;7.00;99.90;;;;;;5097896;27;20088;-89
2023/04/11 01:58:48;;;;;;;6.90;1.85;;;7.00;99.90;;;;;;5099088;27;20077;-89
2023/04/11 02:01:16;;;;;;;8.20;1.80;;;7.00;99.90;;;;;;5098519;27;20063;-88
2023/04/11 02:03:42;;;;;;;9.35;2.20;;;7.00;99.90;;;;;;5115012;27;20079;-89
2023/04/11 02:06:08;;;;;;;9.50;1.73;;;7.10;99.90;;;;;;5098452;27;20121;-89
2023/04/11 02:08:33;;;;;;;6.35;1.67;;;7.10;99.90;;;;;;5097143;27;20054;-89
2023/04/11 02:10:59;;;;;;;10.43;1.98;;;7.00;99.90;;;;;;5097602;27;20092;-89
2023/04/11 02:13:24;;;;;;;11.80;2.30;;;7.00;99.90;;;;;;5097245;27;20131;-89
2023/04/11 02:15:50;;;;;;;10.15;1.88;;;7.00;99.90;;;;;;5097555;27;20048;-89
2023/04/11 02:18:16;;;;;;;7.38;2.13;;;7.00;99.90;;;;;;5115424;27;20053;-89
2023/04/11 02:20:41;;;;;;;7.90;1.80;;;7.00;99.90;;;;;;5097662;27;20089;-89
2023/04/11 02:23:07;;;;;;;8.63;2.25;;;7.00;99.90;;;;;;5096670;27;20122;-88
2023/04/11 02:25:33;;;;;;;8.95;2.58;;;7.00;99.90;;;;;;5097179;27;20407;-88
2023/04/11 02:27:59;;;;;;;10.13;2.75;;;7.10;99.90;;;;;;5113855;27;20031;-88
2023/04/11 02:30:25;;;;;;;11.77;2.38;;;7.00;99.90;;;;;;5112736;27;20032;-89
2023/04/11 02:32:50;;;;;;;12.10;1.95;;;7.00;99.90;;;;;;5097678;27;20092;-88
2023/04/11 02:35:17;;;;;;;7.93;2.17;;;7.00;99.90;;;;;;5113619;27;20714;-88
2023/04/11 02:37:43;;;;;;;10.45;2.53;;;7.10;99.90;;;;;;5114772;27;20504;-88
2023/04/11 02:40:09;;;;;;;10.32;2.10;;;7.00;99.90;;;;;;5097192;27;20045;-89
2023/04/11 02:42:35;;;;;;;12.02;3.03;;;7.10;99.90;;;;;;5096490;27;20039;-89
2023/04/11 02:45:01;;;;;;;9.98;2.60;;;7.10;99.90;;;;;;5097457;27;20134;-89
2023/04/11 02:47:27;;;;;;;14.18;2.67;;;7.10;99.90;;;;;;5095897;27;20121;-88
2023/04/11 02:49:52;;;;;;;9.95;2.08;;;7.20;99.90;;;;;;5097081;27;20035;-88
2023/04/11 02:52:18;;;;;;;11.38;2.83;;;7.30;99.90;;;;;;5097230;27;20031;-88
2023/04/11 02:54:45;;;;;;;11.02;2.60;;;7.40;99.90;;;;;;5114094;27;20038;-88
2023/04/11 02:57:11;;;;;;;6.30;2.08;;;7.50;99.90;;;;;;5114251;27;20074;-88
2023/04/11 02:59:37;;;;;;;5.97;1.75;;;7.60;99.90;;;;;;5096441;27;20050;-90
2023/04/11 03:02:03;;;;;;;12.18;1.98;;;7.60;99.90;;;;;;5097249;27;20039;-90
2023/04/11 03:04:28;;;;;;;11.88;1.60;;;7.60;99.90;;;;;;5095738;27;20039;-90
2023/04/11 03:06:54;;;;;;;7.38;1.67;;;7.70;99.90;;;;;;5097362;27;20031;-90
2023/04/11 03:09:20;;;;;;;6.90;1.77;;;7.70;99.90;;;;;;5095388;27;20035;-90
2023/04/11 03:11:46;;;;;;;9.48;2.08;;;7.70;99.90;;;;;;5096721;27;20612;-90
2023/04/11 03:14:11;;;;;;;7.97;1.88;;;7.70;99.90;;;;;;5096460;27;20555;-90
2023/04/11 03:16:37;;;;;;;9.70;2.53;;;7.80;99.90;;;;;;5099980;27;20042;-89
2023/04/11 03:19:03;;;;;;;15.70;2.47;;;7.80;99.90;;;;;;5096957;27;20041;-89
2023/04/11 03:21:30;;;;;;;15.32;2.35;;;7.80;99.90;;;;;;5112557;27;20035;-88
2023/04/11 03:23:55;;;;;;;4.40;1.52;;;7.80;99.90;;;;;;5096436;27;20664;-88
2023/04/11 03:26:25;;;;;;;8.25;2.30;;;7.80;99.90;;;;;;5112982;27;20118;-88
2023/04/11 03:28:52;;;;;;;10.80;2.08;;;7.80;99.90;;;;;;5096708;28;20067;-88
2023/04/11 03:31:17;;;;;;;9.27;2.25;;;7.90;99.90;;;;;;5075963;28;20046;-88
2023/04/11 03:33:44;;;;;;;14.02;1.98;;;7.90;99.90;;;;;;5108991;27;20039;-88
2023/04/11 03:36:10;;;;;;;12.65;2.25;;;7.90;99.90;;;;;;5097170;28;20070;-88
2023/04/11 03:38:36;;;;;;;7.93;1.98;;;7.90;99.90;;;;;;5096104;27;20093;-88
2023/04/11 03:41:02;;;;;;;7.40;2.10;;;7.90;99.90;;;;;;5076328;28;20085;-88
2023/04/11 03:43:28;;;;;;;7.68;1.80;;;7.90;99.90;;;;;;5075783;28;20042;-89
2023/04/11 03:45:54;;;;;;;9.05;1.90;;;7.90;99.90;;;;;;5091242;27;20070;-88
2023/04/11 03:48:20;;;;;;;9.82;2.33;;;7.90;99.90;;;;;;5096445;27;20480;-88
2023/04/11 03:50:45;;;;;;;9.18;2.05;;;8.00;99.90;;;;;;5096207;27;20095;-89
2023/04/11 03:53:11;;;;;;;7.70;1.63;;;8.00;99.90;;;;;;5112451;27;20450;-88
2023/04/11 03:55:37;;;;;;;7.07;1.00;;;8.10;99.90;;;;;;5113371;28;20043;-88
2023/04/11 03:58:03;;;;;;;6.90;1.10;;;8.10;99.90;;;;;;5096077;27;20047;-88
2023/04/11 04:00:28;;;;;;;4.88;1.25;;;8.10;99.90;;;;;;5095413;27;20057;-87
2023/04/11 04:02:54;;;;;;;8.65;1.58;;;8.10;99.90;;;;;;5112522;27;20039;-87
2023/04/11 04:05:20;;;;;;;7.57;1.52;;;8.00;99.90;;;;;;5111987;28;20095;-88
2023/04/11 04:07:46;;;;;;;8.18;1.50;;;8.00;99.90;;;;;;5095516;28;20039;-89
2023/04/11 04:10:11;;;;;;;9.07;2.00;;;8.10;99.90;;;;;;5106036;28;20446;-87
2023/04/11 04:12:38;;;;;;;9.38;2.50;;;8.10;99.90;;;;;;5092520;28;20035;-88
2023/04/11 04:15:04;;;;;;;7.68;2.20;;;8.10;99.90;;;;;;5092496;28;20035;-88
2023/04/11 04:17:30;;;;;;;6.78;1.38;;;8.10;99.90;;;;;;5093838;28;20050;-88
2023/04/11 04:19:55;;;;;;;7.53;1.42;;;8.10;99.90;;;;;;5095968;28;20031;-88
2023/04/11 04:22:22;;;;;;;10.50;2.10;;;8.10;99.90;;;;;;5088974;28;20067;-87
2023/04/11 04:24:48;;;;;;;5.45;1.40;;;8.10;99.90;;;;;;5075428;28;20058;-87
2023/04/11 04:27:16;;;;;;;7.70;1.67;;;8.10;99.90;;;;;;5082941;28;20043;-87
2023/04/11 04:29:46;;;;;;;12.85;3.63;;;8.10;99.90;;;;;;5075614;28;20062;-87
2023/04/11 04:32:21;;;;;;;9.82;1.95;;;8.10;99.90;;;;;;5078143;28;20115;-87
2023/04/11 04:34:49;;;;;;;9.23;1.52;;;8.10;99.90;;;;;;5113419;28;20069;-87
2023/04/11 04:37:21;;;;;;;10.63;1.98;;;8.10;99.90;;;;;;5113592;28;20058;-88
2023/04/11 04:39:54;;;;;;;4.22;1.42;;;8.10;99.90;;;;;;5095585;28;20499;-87
2023/04/11 04:42:24;;;;;;;;;;;8.10;99.90;;;;;;5076125;28;20071;-88
2023/04/11 04:44:50;;;;;;;10.35;1.83;;;8.10;99.90;;;;;;5092125;28;19994;-87
2023/04/11 04:47:16;;;;;;;7.35;1.25;;;8.20;99.90;;;;;;5094657;28;20036;-88
2023/04/11 04:49:45;;;;;;;6.43;2.13;;;8.10;99.90;;;;;;5112538;28;20043;-87
2023/04/11 04:52:12;;;;;;;7.55;1.35;;;8.20;99.90;;;;;;5095603;28;20031;-87
2023/04/11 04:54:38;;;;;;;9.15;1.77;;;8.20;99.90;;;;;;5082199;28;20042;-87
2023/04/11 04:57:05;;;;;;;7.90;1.38;;;8.20;99.90;;;;;;5079603;28;20039;-88
2023/04/11 04:59:31;;;;;;;14.65;3.22;;;8.20;99.90;;;;;;5104023;27;20095;-87
2023/04/11 05:01:56;;;;;;;12.82;2.33;;;8.20;99.90;;;;;;5116722;27;20499;-87
2023/04/11 05:04:22;;;;;;;9.15;1.52;;;8.20;99.90;;;;;;5088309;27;20134;-88
2023/04/11 05:06:48;;;;;;;9.13;1.95;;;8.20;99.90;;;;;;5078559;28;20492;-88
2023/04/11 05:09:15;;;;;;;9.77;2.05;;;8.20;99.90;;;;;;5082726;27;20502;-87
2023/04/11 05:11:40;;;;;;;8.73;1.75;;;8.20;99.90;;;;;;5115761;27;20701;-88
2023/04/11 05:14:06;;;;;;;10.38;2.05;;;8.20;99.90;;;;;;5100154;27;20042;-88
2023/04/11 05:16:32;;;;;;;13.18;1.88;;;8.20;99.90;;;;;;5107229;27;20081;-88
2023/04/11 05:18:57;;;;;;;10.48;1.65;;;8.20;99.90;;;;;;5100239;27;20189;-88
2023/04/11 05:21:23;;;;;;;12.82;2.17;;;8.20;99.90;;;;;;5133865;27;20512;-88
2023/04/11 05:23:49;;;;;;;6.90;1.38;;;8.20;99.90;;;;;;5101600;28;20109;-89
2023/04/11 05:26:14;;;;;;;7.80;2.00;;;8.20;99.90;;;;;;5078480;28;20040;-88
2023/04/11 05:28:41;;;;;;;10.52;2.35;;;8.30;99.90;;;;;;5103444;28;20028;-87
2023/04/11 05:31:08;;;;;;;8.73;2.28;;;8.30;99.90;;;;;;5096007;28;20051;-88
2023/04/11 05:33:37;;;;;;;9.10;1.88;;;8.30;99.90;;;;;;5102225;27;20051;-87
2023/04/11 05:36:03;;;;;;;7.43;1.58;;;8.30;99.90;;;;;;5099399;27;20032;-88
2023/04/11 05:38:28;;;;;;;8.18;1.77;;;8.30;99.90;;;;;;5099440;27;20492;-87
2023/04/11 05:40:54;;;;;;;6.13;1.63;;;8.30;99.90;;;;;;5097398;27;20046;-88
2023/04/11 05:43:20;;;;;;;7.97;1.80;;;8.30;99.90;;;;;;5115170;27;20039;-88
2023/04/11 05:45:48;;;;;;;7.35;1.83;;;8.30;99.90;;;;;;5091640;28;20039;-88
2023/04/11 05:48:14;;;;;;;5.80;1.50;;;8.30;99.90;;;;;;5112445;27;20125;-87
2023/04/11 05:50:40;;;;;;;7.90;1.70;;;8.30;99.90;;;;;;5115220;27;20549;-87
2023/04/11 05:53:06;;;;;;;6.80;2.33;;;8.30;99.90;;;;;;5093504;27;20035;-88
2023/04/11 05:55:32;;;;;;;7.60;1.85;;;8.40;99.90;;;;;;5099260;27;20145;-87
2023/04/11 05:57:58;;;;;;;5.72;1.45;;;8.40;99.90;;;;;;5102714;28;20062;-87
2023/04/11 06:00:25;;;;;;;10.52;1.98;;;8.40;99.90;;;;;;5079030;28;20031;-87
2023/04/11 06:02:51;;;;;;;5.78;1.58;;;8.40;99.90;;;;;;5086296;27;20575;-88
2023/04/11 06:05:19;;;;;;;6.53;1.40;;;8.40;99.90;;;;;;5094783;28;20145;-88
2023/04/11 06:07:45;;;;;;;11.82;2.60;;;8.40;99.90;;;;;;5094404;28;20594;-87
2023/04/11 06:10:11;;;;;;;3.88;1.05;;;8.50;99.90;;;;;;5119181;27;20039;-88
2023/04/11 06:12:36;;;;;;;4.80;1.20;;;8.50;99.90;;;;;;5109357;27;20035;-87
2023/04/11 06:15:02;;;;;;;7.07;1.70;;;8.50;99.90;;;;;;5105777;27;20034;-88
2023/04/11 06:17:28;;;;;;;5.50;2.10;;;8.50;99.90;;;;;;5115200;27;20039;-88
2023/04/11 06:19:54;;;;;;;7.60;1.20;;;8.50;99.90;;;;;;5115376;27;20127;-88
2023/04/11 06:22:20;;;;;;;6.50;1.40;;;8.50;99.90;;;;;;5097432;27;20066;-88
2023/04/11 06:24:45;;;;;;;7.65;1.50;;;8.60;99.90;;;;;;5132698;27;20042;-89
2023/04/11 06:27:11;;;;;;;6.75;1.25;;;8.60;99.90;;;;;;5132176;27;20091;-88
2023/04/11 06:29:37;;;;;;;7.50;1.23;;;8.60;99.90;;;;;;5096600;27;20076;-89
2023/04/11 06:32:03;;;;;;;3.45;0.93;;;8.60;99.90;;;;;;5114283;27;20039;-87
2023/04/11 06:34:29;;;;;;;4.70;1.10;;;8.60;99.90;;;;;;5097565;27;20479;-87
2023/04/11 06:36:54;;;;;;;7.85;1.63;;;8.60;99.90;;;;;;5114624;27;20446;-88
2023/04/11 06:39:20;;;;;;;7.60;1.52;;;8.60;99.90;;;;;;5096540;27;20114;-88
2023/04/11 06:41:46;;;;;;;4.95;1.40;;;8.70;99.90;;;;;;5114310;27;20031;-87
2023/04/11 06:44:12;;;;;;;6.32;1.23;;;8.70;99.90;;;;;;5090985;28;20031;-88
2023/04/11 06:46:38;;;;;;;5.78;1.25;;;8.70;99.90;;;;;;5094590;27;20039;-88
2023/04/11 06:49:07;;;;;;;5.90;1.30;;;8.70;99.90;;;;;;5132188;27;20028;-87
2023/04/11 06:51:33;;;;;;;4.47;1.27;;;8.70;99.90;;;;;;5131476;27;20042;-87
2023/04/11 06:53:59;;;;;;;4.18;1.02;;;8.70;99.90;;;;;;5098036;27;20039;-88
2023/04/11 06:56:25;;;;;;;8.27;1.42;;;8.60;99.90;;;;;;5113257;27;20038;-87
2023/04/11 06:58:50;;;;;;;6.78;1.88;;;8.60;99.90;;;;;;5097123;27;20054;-87
2023/04/11 07:01:19;;;;;;;6.07;1.30;;;8.60;99.90;;;;;;5097233;27;20038;-87
2023/04/11 07:03:46;;;;;;;5.72;1.13;;;8.60;99.90;;;;;;5097426;27;20057;-88
2023/04/11 07:06:12;;;;;;;5.32;0.95;;;8.60;99.90;;;;;;5096514;27;20099;-88
2023/04/11 07:08:37;;;;;;;7.05;1.25;;;8.70;99.90;;;;;;5096503;27;20035;-88
2023/04/11 07:11:03;;;;;;;10.90;2.00;;;8.70;99.90;;;;;;5096408;27;20076;-87
2023/04/11 07:13:29;;;;;;;7.93;1.30;;;8.70;99.90;;;;;;5096565;27;20432;-87
2023/04/11 07:15:55;;;;;;;8.90;1.17;;;8.70;99.90;;;;;;5094906;27;20370;-89
2023/04/11 07:18:21;;;;;;;9.05;1.15;;;8.70;99.90;;;;;;5110276;27;20438;-88
2023/04/11 07:20:47;;;;;;;5.47;1.30;;;8.70;99.90;;;;;;5111816;27;20043;-88
2023/04/11 07:23:13;;;;;;;5.65;1.58;;;8.80;99.90;;;;;;5107514;27;20064;-86
2023/04/11 07:25:39;;;;;;;5.50;1.02;;;8.80;99.90;;;;;;5096126;27;20515;-87
2023/04/11 07:28:07;;;;;;;10.32;1.50;;;8.80;99.90;;;;;;5091511;28;20031;-88
2023/04/11 07:30:35;;;;;;;7.40;1.58;;;8.90;99.90;;;;;;5075606;28;20044;-87
2023/04/11 07:33:01;;;;;;;10.82;1.77;;;8.90;99.90;;;;;;5075641;27;20042;-89
2023/04/11 07:35:27;;;;;;;8.80;1.55;;;9.00;99.90;;;;;;5093653;28;20075;-88
2023/04/11 07:37:53;;;;;;;7.00;1.42;;;9.00;99.90;;;;;;5076089;28;20119;-88
2023/04/11 07:40:19;;;;;;;10.45;1.55;;;9.00;99.90;;;;;;5092823;27;20038;-88
2023/04/11 07:42:45;;;;;;;7.15;1.15;;;9.00;99.90;;;;;;5096393;27;20043;-88
2023/04/11 07:45:11;;;;;;;11.38;1.95;;;9.00;99.90;;;;;;5112120;27;20071;-88
2023/04/11 07:47:37;;;;;;;8.60;1.50;;;9.00;99.90;;;;;;5095402;27;20043;-88
2023/04/11 07:50:06;;;;;;;5.20;1.13;;;9.00;99.90;;;;;;5085835;27;20050;-88
2023/04/11 07:52:31;;;;;;;7.85;1.25;;;9.00;99.90;;;;;;5112449;27;20028;-88
2023/04/11 07:54:57;;;;;;;5.93;1.30;;;9.00;99.90;;;;;;5113437;27;20054;-88
2023/04/11 07:57:23;;;;;;;4.30;0.80;;;9.10;99.90;;;;;;5095346;27;20035;-88
2023/04/11 07:59:48;;;;;;;5.63;1.13;;;9.10;99.90;;;;;;5096149;28;20039;-88
2023/04/11 08:02:14;;;;;;;7.75;1.45;;;9.20;99.90;;;;;;5130616;27;20465;-88
2023/04/11 08:04:40;;;;;;;5.90;1.67;;;9.30;99.90;;;;;;5096998;28;20039;-88
2023/04/11 08:07:06;;;;;;;6.55;1.60;;;9.30;99.90;;;;;;5092273;28;20067;-88
2023/04/11 08:09:33;;;;;;;7.53;1.85;;;9.30;99.90;;;;;;5074045;28;20047;-88
2023/04/11 08:12:00;;;;;;;6.65;1.25;;;9.40;99.90;;;;;;5075928;28;20032;-88
2023/04/11 08:14:26;;;;;;;7.82;1.38;;;9.40;99.90;;;;;;5083690;28;20057;-88
2023/04/11 08:16:52;;;;;;;8.63;1.23;;;9.50;99.90;;;;;;5090118;28;20081;-88
2023/04/11 08:19:18;;;;;;;5.32;1.10;;;9.60;99.90;;;;;;5096351;28;20071;-88
2023/04/11 08:21:44;;;;;;;3.92;1.30;;;9.60;99.90;;;;;;5108278;28;20123;-87
2023/04/11 08:24:09;;;;;;;10.80;1.85;;;9.60;99.90;;;;;;5078214;28;20094;-88
2023/04/11 08:26:35;;;;;;;6.72;1.10;;;9.70;99.90;;;;;;5075405;28;20047;-87
2023/04/11 08:29:02;;;;;;;12.82;2.67;;;9.70;99.90;;;;;;5084269;27;20542;-88
2023/04/11 08:31:28;;;;;;;4.38;1.20;;;9.80;99.90;;;;;;5097408;27;20058;-88
2023/04/11 08:33:53;;;;;;;8.82;1.65;;;9.90;99.90;;;;;;5109515;27;20035;-88
2023/04/11 08:36:19;;;;;;;7.55;1.48;;;10.00;99.90;;;;;;5107586;27;20033;-88
2023/04/11 08:38:45;;;;;;;8.77;1.40;;;10.10;99.90;;;;;;5110704;27;20668;-87
2023/04/11 08:41:11;;;;;;;10.50;1.35;;;10.20;99.90;;;;;;5102136;27;20042;-89
2023/04/11 08:43:39;;;;;;;5.60;0.93;;;10.20;99.90;;;;;;5117234;27;20122;-88
2023/04/11 08:46:08;;;;;;;5.18;1.20;;;10.20;99.90;;;;;;5134357;27;20081;-87
2023/04/11 08:48:34;;;;;;;5.25;1.50;;;10.30;99.90;;;;;;5094564;28;20050;-87
2023/04/11 08:51:00;;;;;;;10.27;1.88;;;10.30;99.90;;;;;;5078273;28;20043;-88
2023/04/11 08:53:28;;;;;;;4.38;1.17;;;10.20;99.90;;;;;;5097645;28;20032;-88
2023/04/11 08:55:53;;;;;;;7.85;1.33;;;10.00;99.90;;;;;;5096742;28;20086;-88
2023/04/11 08:58:19;;;;;;;6.68;1.33;;;9.90;99.90;;;;;;5116598;27;20074;-88
2023/04/11 09:00:45;;;;;;;7.78;1.52;;;9.60;99.90;;;;;;5134367;27;20067;-88
2023/04/11 09:03:14;;;;;;;4.60;1.38;;;9.40;99.90;;;;;;5116850;27;20031;-88
2023/04/11 09:05:45;;;;;;;3.97;1.20;;;9.30;99.90;;;;;;5114845;27;20027;-88
2023/04/11 09:08:13;;;;;;;6.10;1.17;;;9.40;99.90;;;;;;5115360;27;20034;-89
2023/04/11 09:10:41;;;;;;;7.00;1.45;;;9.50;99.90;;;;;;5095770;27;20035;-88
2023/04/11 09:13:26;;;;;;;9.95;1.85;;;9.80;99.90;;;;;;5094730;28;20043;-88
2023/04/11 09:16:08;;;;;;;5.43;1.20;;;9.90;99.90;;;;;;5102478;27;20028;-89
2023/04/11 09:18:37;;;;;;;5.15;1.33;;;9.90;99.90;;;;;;5109219;27;20491;-88
2023/04/11 09:21:05;;;;;;;5.07;1.08;;;9.80;99.90;;;;;;5116467;27;20131;-88
2023/04/11 09:23:31;;;;;;;7.45;1.65;;;9.50;99.90;;;;;;5099396;27;20038;-88
2023/04/11 09:25:56;;;;;;;4.82;1.20;;;9.20;99.90;;;;;;5088612;28;20049;-88
2023/04/11 09:28:22;;;;;;;6.57;1.75;;;8.90;99.90;;;;;;5078463;28;20038;-88
2023/04/11 09:30:52;;;;;;;7.95;1.45;;;8.70;99.90;;;;;;5108125;27;20039;-88
2023/04/11 09:33:23;;;;;;;6.75;1.67;;;8.60;99.90;;;;;;5115525;27;20039;-88
2023/04/11 09:35:51;;;;;;;2.65;0.75;;;8.60;99.90;;;;;;5098130;27;20047;-88
2023/04/11 09:38:31;;;;;;;7.30;1.15;;;8.50;99.90;;;;;;5116375;27;20442;-88
2023/04/11 09:40:57;;;;;;;6.43;0.88;;;8.50;99.90;;;;;;5098128;27;20425;-87
2023/04/11 09:43:23;;;;;;;5.72;1.25;;;8.50;99.90;;;;;;5115056;27;20031;-88
2023/04/11 09:46:07;;;;;;;5.15;0.93;;;8.60;99.90;;;;;;5098129;27;20122;-88
2023/04/11 09:48:34;;;;;;;5.57;1.30;;;8.70;99.90;;;;;;5089234;28;20446;-88
2023/04/11 09:51:03;;;;;;;6.05;1.55;;;8.90;99.90;;;;;;5094127;28;20657;-88
2023/04/11 09:53:30;;;;;;;3.47;0.73;;;9.00;99.90;;;;;;5094988;27;20094;-89
2023/04/11 09:55:56;;;;;;;6.97;1.10;;;9.00;99.90;;;;;;5115039;27;20031;-88
2023/04/11 09:58:22;;;;;;;4.75;1.27;;;9.00;99.90;;;;;;5115350;27;20058;-88
2023/04/11 10:00:48;;;;;;;4.53;0.70;;;8.80;99.90;;;;;;5097822;27;20042;-88
2023/04/11 10:03:18;;;;;;;4.32;1.05;;;8.70;99.90;;;;;;5081568;27;20047;-89
2023/04/11 10:05:45;;;;;;;3.13;0.80;;;8.80;99.90;;;;;;5115007;27;20091;-89
2023/04/11 10:08:31;;;;;;;2.13;0.82;;;8.80;99.90;;;;;;5107783;28;20492;-89
2023/04/11 10:10:59;;;;;;;5.05;1.08;;;9.00;99.90;;;;;;5094093;28;20044;-89
2023/04/11 10:13:46;;;;;;;7.20;1.00;;;9.30;99.90;;;;;;5112988;27;20034;-88
2023/04/11 10:16:15;;;;;;;12.50;1.83;;;9.40;99.90;;;;;;5077599;28;20044;-88
2023/04/11 10:18:53;;;;;;;8.48;1.33;;;9.40;99.90;;;;;;5097245;27;20031;-88
2023/04/11 10:21:35;;;;;;;8.13;1.50;;;9.40;99.90;;;;;;5077525;28;20039;-90
2023/04/11 10:24:10;;;;;;;10.43;1.52;;;9.40;99.90;;;;;;5095098;28;20576;-90
2023/04/11 10:26:54;;;;;;;10.13;1.73;;;9.40;99.90;;;;;;5093354;27;20039;-90
2023/04/11 10:29:32;;;;;;;10.40;1.60;;;9.50;99.90;;;;;;5114171;27;20412;-90
2023/04/11 10:32:11;;;;;;;8.90;1.63;;;9.70;99.90;;;;;;5112801;27;20461;-91
2023/04/11 10:34:49;;;;;;;13.50;1.85;;;9.80;99.90;;;;;;5097341;27;20039;-90
2023/04/11 10:37:29;;;;;;;12.32;1.70;;;9.90;99.90;;;;;;5112554;27;20504;-89
2023/04/11 10:40:00;;;;;;;6.18;1.08;;;9.90;99.90;;;;;;5094251;28;20369;-88
2023/04/11 10:42:30;;;;;;;13.85;2.03;;;9.80;99.90;;;;;;5101758;27;20031;-89
2023/04/11 10:45:18;;;;;;;8.85;1.60;;;9.70;99.90;;;;;;5077925;28;20084;-89
2023/04/11 10:47:50;;;;;;;13.00;1.95;;;9.80;99.90;;;;;;5082791;27;20042;-89
2023/04/11 10:50:25;;;;;;;7.40;1.30;;;9.90;99.90;;;;;;5106901;27;20052;-89
2023/04/11 10:52:52;;;;;;;8.57;1.52;;;10.00;99.90;;;;;;5095626;27;20084;-89
2023/04/11 10:55:18;;;;;;;9.00;1.50;;;10.10;99.90;;;;;;5123831;27;20043;-89
2023/04/11 10:58:18;;;;;;;6.65;1.45;;;10.10;99.90;;;;;;5105238;27;20397;-89
2023/04/11 11:00:50;;;;;;;3.50;0.90;;;10.10;99.90;;;;;;5103979;27;20046;-88
2023/04/11 11:03:24;;;;;;;4.78;0.88;;;9.80;99.90;;;;;;5120449;27;20482;-88
2023/04/11 11:06:04;;;;;;;6.70;0.98;;;9.50;99.90;;;;;;5097276;27;20031;-88
2023/04/11 11:08:33;;;;;;;2.95;1.27;;;9.40;99.90;;;;;;5098421;27;20027;-88
2023/04/11 11:11:05;;;;;;;7.53;1.25;;;9.50;99.90;;;;;;5101785;27;20086;-88
2023/04/11 11:13:37;;;;;;;8.00;1.35;;;9.70;99.90;;;;;;5098919;27;20031;-88
2023/04/11 11:16:03;;;;;;;3.25;0.88;;;9.80;99.90;;;;;;5106204;27;20043;-88
2023/04/11 11:18:29;;;;;;;11.40;2.17;;;9.80;99.90;;;;;;5117621;27;20041;-89
2023/04/11 11:20:55;;;;;;;8.15;1.50;;;9.90;99.90;;;;;;5128892;27;20050;-89
2023/04/11 11:23:21;;;;;;;7.82;1.95;;;10.20;99.90;;;;;;5114348;27;20043;-89
2023/04/11 11:25:54;;;;;;;8.65;1.63;;;10.50;99.90;;;;;;5096713;27;20512;-88
2023/04/11 11:28:20;;;;;;;9.93;2.05;;;10.60;99.90;;;;;;5093506;28;20035;-88
2023/04/11 11:30:53;;;;;;;6.47;1.30;;;10.80;99.90;;;;;;5075395;28;20058;-88
2023/04/11 11:33:21;;;;;;;8.65;1.88;;;10.80;99.90;;;;;;5104994;27;20106;-89
2023/04/11 11:35:55;;;;;;;9.93;2.42;;;10.90;99.90;;;;;;5096814;27;20031;-89
2023/04/11 11:38:25;;;;;;;6.90;1.98;;;10.90;99.90;;;;;;5097951;27;20047;-89
2023/04/11 11:40:51;;;;;;;7.35;1.80;;;10.80;99.90;;;;;;5106798;27;20109;-89
2023/04/11 11:43:17;;;;;;;8.88;1.73;;;10.70;99.80;;;;;;5120369;27;20039;-88
2023/04/11 11:45:43;;;;;;;9.65;1.40;;;10.70;99.50;;;;;;5093551;27;20071;-89
2023/04/11 11:48:22;;;;;;;9.55;2.80;;;10.90;98.50;;;;;;5084068;27;20027;-89
2023/04/11 11:50:56;;;;;;;3.40;0.80;;;11.00;96.90;;;;;;5111311;27;20690;-88
2023/04/11 11:53:21;;;;;;;8.20;1.83;;;11.40;98.40;;;;;;5095531;27;20783;-89
2023/04/11 11:55:47;;;;;;;4.10;1.08;;;11.70;93.20;;;;;;5095414;27;20070;-89
2023/04/11 11:58:14;;;;;;;8.30;1.35;;;11.70;92.00;;;;;;5097036;28;20035;-89
2023/04/11 12:00:40;;;;;;;7.55;1.27;;;11.60;90.80;;;;;;5093114;27;20039;-89
2023/04/11 12:03:10;;;;;;;5.80;1.17;;;11.60;84.30;;;;;;5080773;28;20092;-89
2023/04/11 12:05:36;;;;;;;7.55;1.10;;;11.40;82.30;;;;;;5092961;28;20042;-88
2023/04/11 12:08:04;;;;;;;6.82;1.00;;;11.30;82.20;;;;;;5074222;28;20031;-89
2023/04/11 12:10:45;;;;;;;8.05;1.20;;;11.10;84.10;;;;;;5080596;28;20031;-88
2023/04/11 12:13:15;;;;;;;12.00;1.30;;;11.10;85.90;;;;;;5111959;28;20415;-89
2023/04/11 12:15:45;;;;;;;6.97;1.48;;;11.10;88.80;;;;;;5076850;28;20035;-88
2023/04/11 12:18:11;;;;;;;7.82;1.58;;;11.10;90.00;;;;;;5059013;28;20051;-89
2023/04/11 12:20:36;;;;;;;5.40;1.27;;;11.20;89.00;;;;;;5079675;28;20043;-89
2023/04/11 12:23:02;;;;;;;5.15;1.10;;;11.50;89.60;;;;;;5092980;28;20553;-91
2023/04/11 12:25:28;;;;;;;6.20;0.93;;;11.70;87.90;;;;;;5105133;28;20080;-89
2023/04/11 12:27:54;;;;;;;6.32;1.42;;;11.90;82.90;;;;;;5095642;28;20031;-89
2023/04/11 12:30:19;;;;;;;4.53;1.33;;;12.00;85.10;;;;;;5095177;28;20498;-89
2023/04/11 12:32:45;;;;;;;8.63;1.42;;;12.20;85.70;;;;;;5107674;28;20043;-90
2023/04/11 12:35:11;;;;;;;7.10;1.63;;;12.30;85.40;;;;;;5112417;28;20039;-90
2023/04/11 12:37:38;;;;;;;5.25;1.23;;;12.40;83.30;;;;;;5095185;28;20039;-89
2023/04/11 12:40:14;;;;;;;8.43;1.73;;;12.40;81.70;;;;;;5112972;28;20445;-90
2023/04/11 12:42:45;;;;;;;6.55;1.30;;;12.50;81.90;;;;;;5103521;28;20123;-89
2023/04/11 12:45:11;;;;;;;7.85;1.30;;;12.60;80.70;;;;;;5123838;28;20043;-90
2023/04/11 12:47:37;;;;;;;7.20;1.52;;;12.50;78.90;;;;;;5083195;28;20032;-89
2023/04/11 12:50:05;;;;;;;4.57;1.17;;;12.50;79.70;;;;;;5083280;28;20107;-90
2023/04/11 12:52:30;;;;;;;7.63;1.67;;;12.70;79.40;;;;;;5085287;28;20084;-89
2023/04/11 12:54:56;;;;;;;4.50;1.20;;;12.80;78.90;;;;;;5092366;28;20032;-90